createdAt,value
2022-09-16T00:04:28.063Z,50.25025
2022-09-16T00:09:29.742Z,46.75405
2022-09-16T00:14:31.400Z,44.9763
2022-09-16T00:19:33.061Z,44.917
2022-09-16T00:24:34.685Z,45.15405
2022-09-16T00:29:36.301Z,42.0134
2022-09-16T00:34:37.902Z,40.5912
2022-09-16T00:39:39.539Z,46.9317
2022-09-16T00:44:41.166Z,43.1985
2022-09-16T00:49:42.768Z,49.8353
2022-09-16T00:54:44.424Z,74.427
2022-09-16T00:59:46.062Z,84.14515
2022-09-16T01:04:47.686Z,83.1378
2022-09-16T01:09:49.285Z,72.7678
2022-09-16T01:14:50.879Z,67.7902
2022-09-16T01:19:52.536Z,62.9903
2022-09-16T01:24:54.135Z,56.70905
2022-09-16T01:29:55.777Z,42.6651
2022-09-16T01:34:57.411Z,36.08755
2022-09-16T01:39:59.145Z,30.1618
2022-09-16T01:45:00.825Z,23.93985
2022-09-16T01:50:02.515Z,15.28835
2022-09-16T01:55:04.793Z,11.7329
2022-09-16T02:00:06.511Z,8.23675
2022-09-16T02:05:08.165Z,4.0295
2022-09-16T02:10:09.869Z,4.74055
2022-09-16T02:15:11.493Z,1.7777
2022-09-16T02:20:13.183Z,0.47405
2022-09-16T02:25:14.803Z,1.16185
2022-09-16T02:30:16.392Z,0
2022-09-16T02:35:18.026Z,0
2022-09-16T02:40:19.814Z,0
2022-09-16T02:45:21.526Z,0
2022-09-16T02:50:23.150Z,0
2022-09-16T02:55:24.773Z,0
2022-09-16T03:00:26.452Z,0
2022-09-16T03:05:28.206Z,0
2022-09-16T03:10:29.849Z,0
2022-09-16T03:15:31.457Z,0
2022-09-16T03:20:33.066Z,0
2022-09-16T03:25:34.685Z,0
2022-09-16T03:30:36.287Z,0
2022-09-16T03:35:37.909Z,0
2022-09-16T03:40:39.698Z,0
2022-09-16T03:45:41.379Z,0
2022-09-16T03:50:42.970Z,0
2022-09-16T03:55:44.628Z,0
2022-09-16T04:00:46.256Z,0
2022-09-16T04:05:47.866Z,0
2022-09-16T04:10:49.499Z,0
2022-09-16T04:15:51.143Z,0
2022-09-16T04:20:52.771Z,0
2022-09-16T04:25:54.407Z,0
2022-09-16T04:30:56.072Z,0
2022-09-16T04:35:57.759Z,0
2022-09-16T04:40:59.435Z,0
2022-09-16T04:46:01.233Z,0
2022-09-16T04:51:02.923Z,0
2022-09-16T04:56:04.539Z,0
2022-09-16T05:01:06.259Z,0
2022-09-16T05:06:07.915Z,0
2022-09-16T05:11:09.582Z,0
2022-09-16T05:16:11.182Z,0
2022-09-16T05:21:12.946Z,0
2022-09-16T05:26:14.600Z,0
2022-09-16T05:31:16.257Z,0
2022-09-16T05:36:17.920Z,0
2022-09-16T05:41:19.563Z,0
2022-09-16T05:46:21.224Z,0
2022-09-16T05:51:22.893Z,0
2022-09-16T05:56:24.490Z,0
2022-09-16T06:01:26.185Z,0
2022-09-16T06:06:27.897Z,0
2022-09-16T06:11:29.493Z,0
2022-09-16T06:16:31.098Z,0
2022-09-16T06:21:32.697Z,0
2022-09-16T06:26:34.309Z,0
2022-09-16T06:31:35.963Z,0
2022-09-16T06:36:40.361Z,0
2022-09-16T06:41:44.637Z,0
2022-09-16T06:46:46.484Z,0
2022-09-16T06:51:48.082Z,0
2022-09-16T06:56:49.793Z,0
2022-09-16T07:01:51.434Z,0
2022-09-16T07:07:09.939Z,0
2022-09-16T07:12:16.239Z,0
2022-09-16T07:17:20.752Z,0
2022-09-16T07:22:22.628Z,0
2022-09-16T07:27:25.341Z,0
2022-09-16T07:32:27.061Z,0
2022-09-16T07:37:28.784Z,0
2022-09-16T07:42:30.383Z,0
2022-09-16T07:47:32.030Z,0
2022-09-16T07:52:33.759Z,0
2022-09-16T07:57:35.408Z,0
2022-09-16T08:02:37.148Z,0
2022-09-16T08:07:38.786Z,0
2022-09-16T08:12:40.441Z,0
2022-09-16T08:17:42.052Z,0
2022-09-16T08:22:43.698Z,0
2022-09-16T08:27:45.364Z,0
2022-09-16T08:32:46.989Z,0
2022-09-16T08:37:50.161Z,0
2022-09-16T08:42:51.982Z,0
2022-09-16T08:47:53.730Z,0
2022-09-16T08:52:55.466Z,0
2022-09-16T08:57:57.083Z,0
2022-09-16T09:02:58.741Z,0
2022-09-16T09:08:00.388Z,0
2022-09-16T09:13:02.629Z,0
2022-09-16T09:18:04.518Z,0
2022-09-16T09:23:06.142Z,0
2022-09-16T09:28:07.820Z,0
2022-09-16T09:33:27.633Z,0
2022-09-16T09:38:36.325Z,0
2022-09-16T09:43:37.987Z,0
2022-09-16T09:48:39.651Z,0
2022-09-16T09:53:41.308Z,0
2022-09-16T09:58:42.974Z,0
2022-09-16T10:03:44.697Z,0
2022-09-16T10:08:46.355Z,0
2022-09-16T10:13:47.966Z,0
2022-09-16T10:18:49.565Z,0
2022-09-16T10:23:51.189Z,0
2022-09-16T10:28:52.840Z,0
2022-09-16T10:33:54.422Z,0
2022-09-16T10:38:58.710Z,0
2022-09-16T10:44:03.931Z,0
2022-09-16T10:49:05.529Z,0
2022-09-16T10:54:07.188Z,0
2022-09-16T10:59:08.784Z,0
2022-09-16T11:04:10.448Z,0
2022-09-16T11:09:12.261Z,0
2022-09-16T11:14:13.988Z,0
2022-09-16T11:19:15.571Z,0
2022-09-16T11:24:17.312Z,0
2022-09-16T11:29:18.907Z,0
2022-09-16T11:34:20.558Z,0
2022-09-16T11:39:22.161Z,0
2022-09-16T11:44:23.822Z,0
2022-09-16T11:49:25.390Z,0
2022-09-16T11:54:27.239Z,0
2022-09-16T11:59:28.952Z,0
2022-09-16T12:04:32.697Z,0
2022-09-16T12:09:36.737Z,0
2022-09-16T12:14:38.337Z,0
2022-09-16T12:19:39.948Z,0
2022-09-16T12:24:41.660Z,0
2022-09-16T12:29:43.295Z,0
2022-09-16T12:34:44.886Z,0
2022-09-16T12:39:46.526Z,0
2022-09-16T12:44:48.115Z,0
2022-09-16T12:49:49.770Z,0
2022-09-16T12:55:07.314Z,0
2022-09-16T13:00:10.247Z,0
2022-09-16T13:05:11.889Z,0
2022-09-16T13:10:13.491Z,1.16185
2022-09-16T13:15:15.171Z,0.47405
2022-09-16T13:20:16.769Z,3.67
2022-09-16T13:25:18.499Z,5.9937
2022-09-16T13:30:20.124Z,6.3626
2022-09-16T13:35:21.732Z,11.01
2022-09-16T13:40:23.384Z,16.6348
2022-09-16T13:45:25.055Z,15.0489
2022-09-16T13:50:26.714Z,17.133
2022-09-16T13:55:28.352Z,11.2589
2022-09-16T14:00:33.827Z,12.85885
2022-09-16T14:05:37.858Z,13.6884
2022-09-16T14:10:39.476Z,15.25235
2022-09-16T14:15:41.181Z,19.0878
2022-09-16T14:20:42.895Z,27.71895
2022-09-16T14:25:44.544Z,32.88355
2022-09-16T14:30:46.247Z,42.1422
2022-09-16T14:35:48.009Z,51.73155
2022-09-16T14:40:49.660Z,52.3834
2022-09-16T14:45:51.294Z,51.2575
2022-09-16T14:50:52.897Z,67.61245
2022-09-16T15:00:56.141Z,84.9747
2022-09-16T15:05:57.747Z,74.90115
2022-09-16T15:10:59.386Z,51.6131
2022-09-16T15:16:01.154Z,45.5689
2022-09-16T15:21:02.904Z,41.48015
2022-09-16T15:26:04.621Z,25.17465
2022-09-16T15:31:06.268Z,23.82835
2022-09-16T15:36:07.928Z,13.77675
2022-09-16T15:41:09.594Z,14.75415
2022-09-16T15:46:11.265Z,21.0616
2022-09-16T15:51:13.039Z,13.7216
2022-09-16T15:56:14.701Z,15.25235
2022-09-16T16:01:16.384Z,32.9471
2022-09-16T16:06:18.044Z,32.236
2022-09-16T16:11:19.638Z,38.8728
2022-09-16T16:16:21.303Z,39.02555
2022-09-16T16:21:22.964Z,38.6358
2022-09-16T16:26:24.549Z,56.47225
2022-09-16T16:31:26.230Z,56.1167
2022-09-16T16:36:27.856Z,59.6129
2022-09-16T16:41:29.463Z,69.27185
2022-09-16T16:46:31.186Z,62.79875
2022-09-16T16:51:32.801Z,59.5338
2022-09-16T16:56:34.409Z,61.43345
2022-09-16T17:01:36.083Z,44.4659
2022-09-16T17:06:37.911Z,43.0093
2022-09-16T17:11:39.555Z,49.1836
2022-09-16T17:16:41.170Z,77.39005
2022-09-16T17:21:42.772Z,128.82525
2022-09-16T17:26:44.370Z,136.23245
2022-09-16T17:31:45.957Z,147.55055
2022-09-16T17:36:47.537Z,95.4635
2022-09-16T17:41:49.187Z,69.2126
2022-09-16T17:46:50.813Z,74.67585
2022-09-16T17:51:52.421Z,75.67165
2022-09-16T17:56:54.130Z,78.753
2022-09-16T18:01:55.785Z,120.35165
2022-09-16T18:06:57.422Z,137.89185
2022-09-16T18:11:59.042Z,144.2916
2022-09-16T18:17:00.735Z,207.0449
2022-09-16T18:22:02.395Z,246.80645
2022-09-16T18:27:04.047Z,325.14455
2022-09-16T18:32:05.692Z,385.9424
2022-09-16T18:37:07.329Z,365.08405
2022-09-16T18:42:08.915Z,411.77875
2022-09-16T18:47:10.521Z,457.7033
2022-09-16T18:52:12.769Z,592.5127
2022-09-16T18:57:14.384Z,654.3178
2022-09-16T19:02:16.238Z,481.58515
2022-09-16T19:07:17.952Z,652.0069
2022-09-16T19:12:19.577Z,403.9574
2022-09-16T19:17:21.290Z,236.43685
2022-09-16T19:22:22.993Z,186.0088
2022-09-16T19:27:24.725Z,188.7938
2022-09-16T19:32:26.423Z,445.4356
2022-09-16T19:37:28.035Z,317.61925
2022-09-16T19:42:29.647Z,264.8803
2022-09-16T19:47:31.278Z,272.99855
2022-09-16T19:52:32.928Z,576.5134
2022-09-16T19:57:34.568Z,736.4482
2022-09-16T20:02:36.299Z,296.6726
2022-09-16T20:07:37.949Z,229.68145
2022-09-16T20:12:39.582Z,218.65945
2022-09-16T20:17:41.234Z,252.79165
2022-09-16T20:22:42.919Z,365.3216
2022-09-16T20:27:44.528Z,393.241
2022-09-16T20:32:46.185Z,300.6719
2022-09-16T20:37:47.906Z,217.94845
2022-09-16T20:42:49.533Z,180.73485
2022-09-16T20:47:51.162Z,127.28475
2022-09-16T20:52:52.827Z,166.51305
2022-09-16T20:57:54.423Z,195.60835
2022-09-16T21:02:56.009Z,263.04315
2022-09-16T21:07:57.766Z,757.18785
2022-09-16T21:12:59.349Z,856.08855
2022-09-16T21:18:00.945Z,661.25145
2022-09-16T21:23:02.690Z,730.997
2022-09-16T21:28:04.296Z,338.0632
2022-09-16T21:33:06.014Z,797.77935
2022-09-16T21:38:07.946Z,277.2058
2022-09-16T21:43:09.596Z,148.38045
2022-09-16T21:48:11.208Z,102.6724
2022-09-16T21:53:12.845Z,51.01295
2022-09-16T21:58:14.824Z,64.2915
2022-09-16T22:03:16.480Z,114.663
2022-09-16T22:08:18.103Z,144.82485
2022-09-16T22:13:19.912Z,103.93735
2022-09-16T22:18:21.571Z,94.3376
2022-09-16T22:23:23.204Z,52.3835
2022-09-16T22:28:24.797Z,43.17475
2022-09-16T22:33:26.381Z,33.51105
2022-09-16T22:38:27.973Z,63.27795
2022-09-16T22:43:29.589Z,103.10765
2022-09-16T22:48:31.226Z,93.2709
2022-09-16T22:53:32.827Z,68.38295
2022-09-16T22:58:34.453Z,44.65035
2022-09-16T23:03:36.182Z,26.5473
2022-09-16T23:08:37.882Z,19.66015
2022-09-16T23:13:39.508Z,17.5209
2022-09-16T23:18:41.111Z,20.5824
2022-09-16T23:23:42.703Z,11.82195
2022-09-16T23:28:44.339Z,12.0064
2022-09-16T23:33:45.980Z,13.03895
2022-09-16T23:38:47.574Z,15.1782
2022-09-16T23:43:49.246Z,12.67005
2022-09-16T23:48:50.928Z,10.34635
2022-09-16T23:53:52.550Z,14.2008
2022-09-16T23:58:54.168Z,20.37895
